sensor_id;sensor_type;location;lat;lon;timestamp;pressure;altitude;pressure_sealevel;temperature;humidity
13732;BME280;6937;56.096;12.664;2023-04-22T00:01:22;101739.75;;;9.91;69.94
13732;BME280;6937;56.096;12.664;2023-04-22T00:03:49;101727.16;;;9.78;72.05
13732;BME280;6937;56.096;12.664;2023-04-22T00:06:15;101716.06;;;9.68;74.03
13732;BME280;6937;56.096;12.664;2023-04-22T00:08:40;101704.88;;;9.61;76.02
13732;BME280;6937;56.096;12.664;2023-04-22T00:11:05;101699.25;;;9.50;77.21
13732;BME280;6937;56.096;12.664;2023-04-22T00:13:31;101694.13;;;9.46;78.09
13732;BME280;6937;56.096;12.664;2023-04-22T00:15:56;101689.66;;;9.46;78.81
13732;BME280;6937;56.096;12.664;2023-04-22T00:18:22;101677.59;;;9.39;79.04
13732;BME280;6937;56.096;12.664;2023-04-22T00:20:47;101680.59;;;9.33;79.18
13732;BME280;6937;56.096;12.664;2023-04-22T00:23:13;101681.59;;;9.31;79.02
13732;BME280;6937;56.096;12.664;2023-04-22T00:25:39;101670.06;;;9.30;78.24
13732;BME280;6937;56.096;12.664;2023-04-22T00:28:05;101676.44;;;9.28;76.84
13732;BME280;6937;56.096;12.664;2023-04-22T00:30:30;101671.34;;;9.23;75.71
13732;BME280;6937;56.096;12.664;2023-04-22T00:32:56;101668.91;;;9.18;74.39
13732;BME280;6937;56.096;12.664;2023-04-22T00:35:21;101681.94;;;9.25;73.12
13732;BME280;6937;56.096;12.664;2023-04-22T00:37:47;101680.66;;;9.32;72.03
13732;BME280;6937;56.096;12.664;2023-04-22T00:40:12;101686.63;;;9.37;70.99
13732;BME280;6937;56.096;12.664;2023-04-22T00:42:38;101698.72;;;9.44;70.95
13732;BME280;6937;56.096;12.664;2023-04-22T00:45:04;101687.75;;;8.98;71.84
13732;BME280;6937;56.096;12.664;2023-04-22T00:47:34;101668.13;;;8.65;73.91
13732;BME280;6937;56.096;12.664;2023-04-22T00:50:02;101684.72;;;8.53;76.42
13732;BME280;6937;56.096;12.664;2023-04-22T00:52:27;101667.97;;;8.51;78.61
13732;BME280;6937;56.096;12.664;2023-04-22T00:54:53;101668.66;;;8.54;80.07
13732;BME280;6937;56.096;12.664;2023-04-22T00:57:19;101650.31;;;8.48;80.92
13732;BME280;6937;56.096;12.664;2023-04-22T00:59:44;101649.09;;;8.37;81.95
13732;BME280;6937;56.096;12.664;2023-04-22T01:02:10;101639.69;;;8.30;82.98
13732;BME280;6937;56.096;12.664;2023-04-22T01:04:36;101645.56;;;8.17;83.10
13732;BME280;6937;56.096;12.664;2023-04-22T01:07:01;101650.34;;;8.11;84.16
13732;BME280;6937;56.096;12.664;2023-04-22T01:09:26;101642.72;;;8.03;85.37
13732;BME280;6937;56.096;12.664;2023-04-22T01:11:52;101644.44;;;8.04;86.53
13732;BME280;6937;56.096;12.664;2023-04-22T01:14:18;101640.22;;;8.00;87.69
13732;BME280;6937;56.096;12.664;2023-04-22T01:16:44;101626.84;;;7.83;88.97
13732;BME280;6937;56.096;12.664;2023-04-22T01:19:10;101628.44;;;7.68;90.92
13732;BME280;6937;56.096;12.664;2023-04-22T01:21:37;101627.78;;;7.63;92.85
13732;BME280;6937;56.096;12.664;2023-04-22T01:24:03;101627.78;;;7.63;94.29
13732;BME280;6937;56.096;12.664;2023-04-22T01:26:29;101625.25;;;7.60;95.21
13732;BME280;6937;56.096;12.664;2023-04-22T01:28:55;101619.63;;;7.48;96.54
13732;BME280;6937;56.096;12.664;2023-04-22T01:31:20;101613.22;;;7.33;96.97
13732;BME280;6937;56.096;12.664;2023-04-22T01:33:46;101611.97;;;7.21;98.04
13732;BME280;6937;56.096;12.664;2023-04-22T01:36:12;101612.13;;;7.18;99.70
13732;BME280;6937;56.096;12.664;2023-04-22T01:38:38;101604.91;;;7.20;100.00
13732;BME280;6937;56.096;12.664;2023-04-22T01:41:04;101604.91;;;7.20;100.00
13732;BME280;6937;56.096;12.664;2023-04-22T01:43:30;101596.31;;;7.15;100.00
13732;BME280;6937;56.096;12.664;2023-04-22T01:45:56;101590.31;;;7.10;100.00
13732;BME280;6937;56.096;12.664;2023-04-22T01:48:22;101584.28;;;7.07;100.00
13732;BME280;6937;56.096;12.664;2023-04-22T01:50:48;101577.22;;;7.06;100.00
13732;BME280;6937;56.096;12.664;2023-04-22T01:53:13;101565.16;;;6.99;100.00
13732;BME280;6937;56.096;12.664;2023-04-22T01:55:38;101559.47;;;6.88;100.00
13732;BME280;6937;56.096;12.664;2023-04-22T01:58:04;101559.66;;;6.83;100.00
13732;BME280;6937;56.096;12.664;2023-04-22T02:00:30;101555.06;;;6.87;100.00
13732;BME280;6937;56.096;12.664;2023-04-22T02:02:55;101542.50;;;6.90;100.00
13732;BME280;6937;56.096;12.664;2023-04-22T02:05:21;101534.47;;;6.92;100.00
13732;BME280;6937;56.096;12.664;2023-04-22T02:07:50;101533.75;;;6.88;100.00
13732;BME280;6937;56.096;12.664;2023-04-22T02:10:16;101535.59;;;6.86;100.00
13732;BME280;6937;56.096;12.664;2023-04-22T02:12:41;101528.19;;;6.74;100.00
13732;BME280;6937;56.096;12.664;2023-04-22T02:15:07;101529.31;;;6.68;100.00
13732;BME280;6937;56.096;12.664;2023-04-22T02:17:32;101519.75;;;6.64;100.00
13732;BME280;6937;56.096;12.664;2023-04-22T02:19:58;101512.94;;;6.59;100.00
13732;BME280;6937;56.096;12.664;2023-04-22T02:22:23;101506.81;;;6.57;100.00
13732;BME280;6937;56.096;12.664;2023-04-22T02:24:49;101504.28;;;6.54;100.00
13732;BME280;6937;56.096;12.664;2023-04-22T02:27:14;101491.28;;;6.48;100.00
13732;BME280;6937;56.096;12.664;2023-04-22T02:29:39;101496.41;;;6.52;100.00
13732;BME280;6937;56.096;12.664;2023-04-22T02:32:05;101490.28;;;6.50;100.00
13732;BME280;6937;56.096;12.664;2023-04-22T02:34:31;101484.41;;;6.44;100.00
13732;BME280;6937;56.096;12.664;2023-04-22T02:36:56;101481.94;;;6.39;100.00
13732;BME280;6937;56.096;12.664;2023-04-22T02:39:21;101481.88;;;6.41;100.00
13732;BME280;6937;56.096;12.664;2023-04-22T02:41:47;101477.50;;;6.40;100.00
13732;BME280;6937;56.096;12.664;2023-04-22T02:44:12;101476.69;;;6.38;100.00
13732;BME280;6937;56.096;12.664;2023-04-22T02:46:37;101473.38;;;6.32;100.00
13732;BME280;6937;56.096;12.664;2023-04-22T02:49:03;101470.06;;;6.27;100.00
13732;BME280;6937;56.096;12.664;2023-04-22T02:51:28;101475.22;;;6.30;100.00
13732;BME280;6937;56.096;12.664;2023-04-22T02:53:53;101463.09;;;6.25;100.00
13732;BME280;6937;56.096;12.664;2023-04-22T02:56:19;101463.44;;;6.17;100.00
13732;BME280;6937;56.096;12.664;2023-04-22T02:58:45;101464.28;;;6.18;100.00
13732;BME280;6937;56.096;12.664;2023-04-22T03:01:10;101459.09;;;6.15;100.00
13732;BME280;6937;56.096;12.664;2023-04-22T03:03:36;101455.72;;;6.11;100.00
13732;BME280;6937;56.096;12.664;2023-04-22T03:06:01;101452.22;;;6.11;100.00
13732;BME280;6937;56.096;12.664;2023-04-22T03:08:27;101441.72;;;6.08;100.00
13732;BME280;6937;56.096;12.664;2023-04-22T03:10:52;101447.97;;;6.07;100.00
13732;BME280;6937;56.096;12.664;2023-04-22T03:13:17;101436.81;;;5.99;100.00
13732;BME280;6937;56.096;12.664;2023-04-22T03:15:43;101438.06;;;5.90;100.00
13732;BME280;6937;56.096;12.664;2023-04-22T03:18:08;101433.31;;;5.76;100.00
13732;BME280;6937;56.096;12.664;2023-04-22T03:20:34;101434.41;;;5.71;100.00
13732;BME280;6937;56.096;12.664;2023-04-22T03:22:59;101428.47;;;5.66;100.00
13732;BME280;6937;56.096;12.664;2023-04-22T03:25:25;101430.47;;;5.59;100.00
13732;BME280;6937;56.096;12.664;2023-04-22T03:27:50;101429.75;;;5.56;100.00
13732;BME280;6937;56.096;12.664;2023-04-22T03:30:15;101423.06;;;5.47;100.00
13732;BME280;6937;56.096;12.664;2023-04-22T03:32:41;101425.06;;;5.41;100.00
13732;BME280;6937;56.096;12.664;2023-04-22T03:35:06;101423.41;;;5.38;100.00
13732;BME280;6937;56.096;12.664;2023-04-22T03:37:32;101419.16;;;5.34;100.00
13732;BME280;6937;56.096;12.664;2023-04-22T03:39:57;101420.94;;;5.33;100.00
13732;BME280;6937;56.096;12.664;2023-04-22T03:42:22;101421.66;;;5.37;100.00
13732;BME280;6937;56.096;12.664;2023-04-22T03:44:48;101409.28;;;5.38;100.00
13732;BME280;6937;56.096;12.664;2023-04-22T03:47:13;101408.41;;;5.37;100.00
13732;BME280;6937;56.096;12.664;2023-04-22T03:49:39;101408.50;;;5.35;100.00
13732;BME280;6937;56.096;12.664;2023-04-22T03:52:04;101401.50;;;5.33;100.00
13732;BME280;6937;56.096;12.664;2023-04-22T03:54:29;101399.50;;;5.40;100.00
13732;BME280;6937;56.096;12.664;2023-04-22T03:56:55;101392.22;;;5.45;100.00
13732;BME280;6937;56.096;12.664;2023-04-22T03:59:20;101388.63;;;5.46;100.00
13732;BME280;6937;56.096;12.664;2023-04-22T04:01:46;101388.50;;;5.49;100.00
13732;BME280;6937;56.096;12.664;2023-04-22T04:04:11;101394.53;;;5.52;100.00
13732;BME280;6937;56.096;12.664;2023-04-22T04:06:37;101390.91;;;5.55;100.00
13732;BME280;6937;56.096;12.664;2023-04-22T04:09:02;101390.06;;;5.54;100.00
13732;BME280;6937;56.096;12.664;2023-04-22T04:11:29;101394.50;;;5.54;100.00
13732;BME280;6937;56.096;12.664;2023-04-22T04:13:54;101395.03;;;5.62;100.00
13732;BME280;6937;56.096;12.664;2023-04-22T04:16:20;101394.72;;;5.69;100.00
13732;BME280;6937;56.096;12.664;2023-04-22T04:18:49;101397.84;;;5.79;100.00
13732;BME280;6937;56.096;12.664;2023-04-22T04:21:14;101400.34;;;5.82;100.00
13732;BME280;6937;56.096;12.664;2023-04-22T04:23:40;101402.78;;;5.88;100.00
13732;BME280;6937;56.096;12.664;2023-04-22T04:26:05;101403.44;;;5.93;100.00
13732;BME280;6937;56.096;12.664;2023-04-22T04:28:31;101407.69;;;5.97;100.00
13732;BME280;6937;56.096;12.664;2023-04-22T04:30:58;101396.09;;;6.00;100.00
13732;BME280;6937;56.096;12.664;2023-04-22T04:33:24;101402.91;;;6.05;100.00
13732;BME280;6937;56.096;12.664;2023-04-22T04:35:51;101407.03;;;6.12;100.00
13732;BME280;6937;56.096;12.664;2023-04-22T04:38:16;101404.13;;;6.18;100.00
13732;BME280;6937;56.096;12.664;2023-04-22T04:40:42;101398.53;;;6.24;100.00
13732;BME280;6937;56.096;12.664;2023-04-22T04:43:09;101406.34;;;6.27;100.00
13732;BME280;6937;56.096;12.664;2023-04-22T04:45:35;101409.66;;;6.32;100.00
13732;BME280;6937;56.096;12.664;2023-04-22T04:48:01;101417.44;;;6.37;100.00
13732;BME280;6937;56.096;12.664;2023-04-22T04:50:27;101411.91;;;6.42;100.00
13732;BME280;6937;56.096;12.664;2023-04-22T04:52:53;101405.53;;;6.46;100.00
13732;BME280;6937;56.096;12.664;2023-04-22T04:55:18;101414.28;;;6.48;100.00
13732;BME280;6937;56.096;12.664;2023-04-22T04:57:44;101414.94;;;6.53;100.00
13732;BME280;6937;56.096;12.664;2023-04-22T05:00:10;101425.44;;;6.56;100.00
13732;BME280;6937;56.096;12.664;2023-04-22T05:02:36;101424.09;;;6.66;100.00
13732;BME280;6937;56.096;12.664;2023-04-22T05:05:02;101421.22;;;6.70;100.00
13732;BME280;6937;56.096;12.664;2023-04-22T05:07:27;101422.66;;;6.77;100.00
13732;BME280;6937;56.096;12.664;2023-04-22T05:09:52;101421.50;;;6.83;100.00
13732;BME280;6937;56.096;12.664;2023-04-22T05:12:18;101413.31;;;6.88;100.00
13732;BME280;6937;56.096;12.664;2023-04-22T05:14:43;101420.00;;;6.96;100.00
13732;BME280;6937;56.096;12.664;2023-04-22T05:17:10;101416.84;;;7.07;100.00
13732;BME280;6937;56.096;12.664;2023-04-22T05:19:36;101416.53;;;7.13;100.00
13732;BME280;6937;56.096;12.664;2023-04-22T05:22:02;101409.78;;;7.24;100.00
13732;BME280;6937;56.096;12.664;2023-04-22T05:24:27;101404.78;;;7.36;100.00
13732;BME280;6937;56.096;12.664;2023-04-22T05:26:52;101399.69;;;7.50;100.00
13732;BME280;6937;56.096;12.664;2023-04-22T05:29:18;101406.03;;;7.64;100.00
13732;BME280;6937;56.096;12.664;2023-04-22T05:31:43;101410.81;;;7.75;100.00
13732;BME280;6937;56.096;12.664;2023-04-22T05:34:09;101412.78;;;7.89;100.00
13732;BME280;6937;56.096;12.664;2023-04-22T05:36:36;101403.38;;;7.99;100.00
13732;BME280;6937;56.096;12.664;2023-04-22T05:39:01;101408.88;;;8.13;100.00
13732;BME280;6937;56.096;12.664;2023-04-22T05:41:26;101410.72;;;8.28;100.00
13732;BME280;6937;56.096;12.664;2023-04-22T05:43:52;101407.53;;;8.39;100.00
13732;BME280;6937;56.096;12.664;2023-04-22T05:46:17;101408.81;;;8.47;100.00
13732;BME280;6937;56.096;12.664;2023-04-22T05:48:42;101411.69;;;8.60;100.00
13732;BME280;6937;56.096;12.664;2023-04-22T05:51:08;101406.47;;;8.74;100.00
13732;BME280;6937;56.096;12.664;2023-04-22T05:53:33;101413.63;;;8.89;100.00
13732;BME280;6937;56.096;12.664;2023-04-22T05:55:58;101410.31;;;9.01;100.00
13732;BME280;6937;56.096;12.664;2023-04-22T05:58:24;101411.34;;;9.14;100.00
13732;BME280;6937;56.096;12.664;2023-04-22T06:00:49;101409.78;;;9.26;100.00
13732;BME280;6937;56.096;12.664;2023-04-22T06:03:15;101409.75;;;9.42;100.00
13732;BME280;6937;56.096;12.664;2023-04-22T06:05:40;101415.19;;;9.56;100.00
13732;BME280;6937;56.096;12.664;2023-04-22T06:08:06;101418.84;;;9.69;100.00
13732;BME280;6937;56.096;12.664;2023-04-22T06:10:31;101406.00;;;9.76;100.00
13732;BME280;6937;56.096;12.664;2023-04-22T06:12:57;101407.97;;;9.88;100.00
13732;BME280;6937;56.096;12.664;2023-04-22T06:15:22;101416.97;;;10.01;100.00
13732;BME280;6937;56.096;12.664;2023-04-22T06:17:47;101412.69;;;10.12;100.00
13732;BME280;6937;56.096;12.664;2023-04-22T06:20:13;101415.72;;;10.22;100.00
13732;BME280;6937;56.096;12.664;2023-04-22T06:22:39;101416.78;;;10.34;100.00
13732;BME280;6937;56.096;12.664;2023-04-22T06:25:04;101413.44;;;10.44;100.00
13732;BME280;6937;56.096;12.664;2023-04-22T06:27:30;101423.28;;;10.58;100.00
13732;BME280;6937;56.096;12.664;2023-04-22T06:29:55;101422.59;;;10.68;100.00
13732;BME280;6937;56.096;12.664;2023-04-22T06:32:21;101418.44;;;10.79;100.00
13732;BME280;6937;56.096;12.664;2023-04-22T06:34:46;101418.31;;;10.94;100.00
13732;BME280;6937;56.096;12.664;2023-04-22T06:37:11;101413.16;;;11.05;100.00
13732;BME280;6937;56.096;12.664;2023-04-22T06:39:37;101417.69;;;11.18;100.00
13732;BME280;6937;56.096;12.664;2023-04-22T06:42:02;101411.84;;;11.25;100.00
13732;BME280;6937;56.096;12.664;2023-04-22T06:44:28;101421.88;;;11.36;100.00
13732;BME280;6937;56.096;12.664;2023-04-22T06:46:53;101423.06;;;11.44;100.00
13732;BME280;6937;56.096;12.664;2023-04-22T06:49:19;101420.34;;;11.58;100.00
13732;BME280;6937;56.096;12.664;2023-04-22T06:51:45;101421.78;;;11.64;100.00
13732;BME280;6937;56.096;12.664;2023-04-22T06:54:10;101413.91;;;11.75;100.00
13732;BME280;6937;56.096;12.664;2023-04-22T06:56:35;101422.00;;;11.88;100.00
13732;BME280;6937;56.096;12.664;2023-04-22T06:59:01;101426.19;;;11.92;100.00
13732;BME280;6937;56.096;12.664;2023-04-22T07:01:26;101421.25;;;11.98;100.00
13732;BME280;6937;56.096;12.664;2023-04-22T07:03:51;101421.19;;;12.13;100.00
13732;BME280;6937;56.096;12.664;2023-04-22T07:06:17;101415.19;;;12.22;100.00
13732;BME280;6937;56.096;12.664;2023-04-22T07:08:42;101423.53;;;12.30;100.00
13732;BME280;6937;56.096;12.664;2023-04-22T07:11:08;101424.97;;;12.48;100.00
13732;BME280;6937;56.096;12.664;2023-04-22T07:13:34;101428.63;;;12.59;100.00
13732;BME280;6937;56.096;12.664;2023-04-22T07:16:00;101420.13;;;12.66;100.00
13732;BME280;6937;56.096;12.664;2023-04-22T07:18:25;101418.31;;;12.66;100.00
13732;BME280;6937;56.096;12.664;2023-04-22T07:20:51;101423.66;;;12.79;100.00
13732;BME280;6937;56.096;12.664;2023-04-22T07:23:17;101421.06;;;12.90;100.00
13732;BME280;6937;56.096;12.664;2023-04-22T07:25:42;101418.06;;;12.94;100.00
13732;BME280;6937;56.096;12.664;2023-04-22T07:28:08;101424.91;;;12.98;100.00
13732;BME280;6937;56.096;12.664;2023-04-22T07:30:33;101423.41;;;13.07;100.00
13732;BME280;6937;56.096;12.664;2023-04-22T07:32:58;101426.31;;;13.17;100.00
13732;BME280;6937;56.096;12.664;2023-04-22T07:35:24;101423.50;;;13.31;100.00
13732;BME280;6937;56.096;12.664;2023-04-22T07:37:49;101429.03;;;13.40;100.00
13732;BME280;6937;56.096;12.664;2023-04-22T07:40:15;101432.34;;;13.44;100.00
13732;BME280;6937;56.096;12.664;2023-04-22T07:42:40;101425.44;;;13.52;100.00
13732;BME280;6937;56.096;12.664;2023-04-22T07:45:06;101428.28;;;13.62;100.00
13732;BME280;6937;56.096;12.664;2023-04-22T07:47:31;101426.63;;;13.72;100.00
13732;BME280;6937;56.096;12.664;2023-04-22T07:49:57;101427.34;;;13.87;100.00
13732;BME280;6937;56.096;12.664;2023-04-22T07:52:22;101417.41;;;13.87;100.00
13732;BME280;6937;56.096;12.664;2023-04-22T07:54:47;101410.13;;;13.89;100.00
13732;BME280;6937;56.096;12.664;2023-04-22T07:57:13;101415.53;;;14.00;100.00
13732;BME280;6937;56.096;12.664;2023-04-22T07:59:38;101426.06;;;14.15;100.00
13732;BME280;6937;56.096;12.664;2023-04-22T08:02:03;101420.88;;;14.24;100.00
13732;BME280;6937;56.096;12.664;2023-04-22T08:04:29;101418.84;;;14.39;100.00
13732;BME280;6937;56.096;12.664;2023-04-22T08:06:54;101406.88;;;14.43;100.00
13732;BME280;6937;56.096;12.664;2023-04-22T08:09:21;101411.16;;;14.57;100.00
13732;BME280;6937;56.096;12.664;2023-04-22T08:11:47;101417.88;;;14.62;100.00
13732;BME280;6937;56.096;12.664;2023-04-22T08:14:12;101419.25;;;14.68;100.00
13732;BME280;6937;56.096;12.664;2023-04-22T08:16:38;101421.22;;;14.77;100.00
13732;BME280;6937;56.096;12.664;2023-04-22T08:19:04;101421.06;;;14.78;100.00
13732;BME280;6937;56.096;12.664;2023-04-22T08:21:29;101421.81;;;14.58;100.00
13732;BME280;6937;56.096;12.664;2023-04-22T08:23:55;101420.13;;;14.33;100.00
13732;BME280;6937;56.096;12.664;2023-04-22T08:26:21;101406.66;;;14.22;100.00
13732;BME280;6937;56.096;12.664;2023-04-22T08:28:46;101399.31;;;14.13;100.00
13732;BME280;6937;56.096;12.664;2023-04-22T08:31:12;101392.94;;;14.14;100.00
13732;BME280;6937;56.096;12.664;2023-04-22T08:33:39;101383.28;;;14.00;100.00
13732;BME280;6937;56.096;12.664;2023-04-22T08:36:04;101383.75;;;13.94;100.00
13732;BME280;6937;56.096;12.664;2023-04-22T08:38:30;101389.50;;;14.01;100.00
13732;BME280;6937;56.096;12.664;2023-04-22T08:40:55;101382.75;;;13.95;100.00
13732;BME280;6937;56.096;12.664;2023-04-22T08:43:24;101376.53;;;13.95;100.00
13732;BME280;6937;56.096;12.664;2023-04-22T08:45:49;101379.34;;;13.93;100.00
13732;BME280;6937;56.096;12.664;2023-04-22T08:48:15;101374.06;;;13.92;100.00
13732;BME280;6937;56.096;12.664;2023-04-22T08:50:41;101369.22;;;13.97;100.00
13732;BME280;6937;56.096;12.664;2023-04-22T08:53:07;101366.25;;;13.89;100.00
13732;BME280;6937;56.096;12.664;2023-04-22T08:55:33;101365.41;;;13.88;100.00
13732;BME280;6937;56.096;12.664;2023-04-22T08:58:00;101369.38;;;14.18;100.00
13732;BME280;6937;56.096;12.664;2023-04-22T09:00:29;101362.81;;;14.33;100.00
13732;BME280;6937;56.096;12.664;2023-04-22T09:02:56;101357.72;;;14.52;100.00
13732;BME280;6937;56.096;12.664;2023-04-22T09:05:23;101361.75;;;14.80;100.00
13732;BME280;6937;56.096;12.664;2023-04-22T09:07:50;101361.59;;;15.04;100.00
13732;BME280;6937;56.096;12.664;2023-04-22T09:10:16;101362.84;;;15.11;100.00
13732;BME280;6937;56.096;12.664;2023-04-22T09:12:41;101364.66;;;15.21;100.00
13732;BME280;6937;56.096;12.664;2023-04-22T09:15:07;101376.44;;;15.41;100.00
13732;BME280;6937;56.096;12.664;2023-04-22T09:17:35;101377.53;;;15.61;100.00
13732;BME280;6937;56.096;12.664;2023-04-22T09:20:03;101380.25;;;15.81;100.00
13732;BME280;6937;56.096;12.664;2023-04-22T09:22:45;101384.59;;;15.93;100.00
13732;BME280;6937;56.096;12.664;2023-04-22T09:25:20;101391.50;;;15.86;100.00
13732;BME280;6937;56.096;12.664;2023-04-22T09:27:54;101384.19;;;15.77;100.00
13732;BME280;6937;56.096;12.664;2023-04-22T09:30:33;101380.13;;;15.83;100.00
13732;BME280;6937;56.096;12.664;2023-04-22T09:33:01;101381.94;;;15.82;100.00
13732;BME280;6937;56.096;12.664;2023-04-22T09:35:32;101375.03;;;15.69;100.00
13732;BME280;6937;56.096;12.664;2023-04-22T09:38:00;101372.06;;;15.51;100.00
13732;BME280;6937;56.096;12.664;2023-04-22T09:40:26;101380.84;;;15.42;100.00
13732;BME280;6937;56.096;12.664;2023-04-22T09:42:53;101373.56;;;15.33;100.00
13732;BME280;6937;56.096;12.664;2023-04-22T09:45:33;101373.28;;;15.36;100.00
13732;BME280;6937;56.096;12.664;2023-04-22T09:48:08;101365.69;;;15.52;100.00
13732;BME280;6937;56.096;12.664;2023-04-22T09:50:35;101355.91;;;15.40;100.00
13732;BME280;6937;56.096;12.664;2023-04-22T09:53:03;101355.63;;;15.43;100.00
13732;BME280;6937;56.096;12.664;2023-04-22T09:55:37;101351.31;;;15.63;100.00
13732;BME280;6937;56.096;12.664;2023-04-22T09:58:14;101353.59;;;15.67;100.00
13732;BME280;6937;56.096;12.664;2023-04-22T10:00:46;101354.88;;;15.63;100.00
13732;BME280;6937;56.096;12.664;2023-04-22T10:03:13;101349.25;;;15.55;100.00
13732;BME280;6937;56.096;12.664;2023-04-22T10:05:38;101351.53;;;15.60;100.00
13732;BME280;6937;56.096;12.664;2023-04-22T10:08:06;101341.41;;;15.63;100.00
13732;BME280;6937;56.096;12.664;2023-04-22T10:10:32;101348.22;;;15.67;100.00
13732;BME280;6937;56.096;12.664;2023-04-22T10:12:59;101342.59;;;15.91;100.00
13732;BME280;6937;56.096;12.664;2023-04-22T10:15:25;101339.47;;;16.16;100.00
13732;BME280;6937;56.096;12.664;2023-04-22T10:17:56;101333.06;;;16.08;100.00
13732;BME280;6937;56.096;12.664;2023-04-22T10:20:22;101328.78;;;16.05;100.00
13732;BME280;6937;56.096;12.664;2023-04-22T10:22:52;101330.22;;;15.88;100.00
13732;BME280;6937;56.096;12.664;2023-04-22T10:25:23;101324.50;;;16.03;100.00
13732;BME280;6937;56.096;12.664;2023-04-22T10:28:07;101324.16;;;16.17;100.00
13732;BME280;6937;56.096;12.664;2023-04-22T10:30:35;101325.75;;;16.19;100.00
13732;BME280;6937;56.096;12.664;2023-04-22T10:36:04;101331.22;;;15.87;100.00
13732;BME280;6937;56.096;12.664;2023-04-22T10:38:34;101319.31;;;15.90;100.00
13732;BME280;6937;56.096;12.664;2023-04-22T10:40:59;101325.91;;;15.97;100.00
13732;BME280;6937;56.096;12.664;2023-04-22T10:43:47;101319.25;;;16.31;100.00
13732;BME280;6937;56.096;12.664;2023-04-22T10:49:17;101302.75;;;16.85;99.40
13732;BME280;6937;56.096;12.664;2023-04-22T10:51:55;101305.94;;;17.29;99.92
13732;BME280;6937;56.096;12.664;2023-04-22T10:57:18;101300.44;;;17.78;95.18
13732;BME280;6937;56.096;12.664;2023-04-22T10:59:54;101298.53;;;18.08;93.72
13732;BME280;6937;56.096;12.664;2023-04-22T11:02:21;101310.38;;;18.07;90.14
13732;BME280;6937;56.096;12.664;2023-04-22T11:04:47;101317.84;;;18.22;89.82
13732;BME280;6937;56.096;12.664;2023-04-22T11:09:57;101317.09;;;18.40;85.47
13732;BME280;6937;56.096;12.664;2023-04-22T11:15:14;101313.41;;;17.75;84.02
13732;BME280;6937;56.096;12.664;2023-04-22T11:17:45;101300.44;;;17.59;84.86
13732;BME280;6937;56.096;12.664;2023-04-22T11:20:12;101303.31;;;17.58;86.37
13732;BME280;6937;56.096;12.664;2023-04-22T11:22:42;101290.03;;;17.45;85.99
13732;BME280;6937;56.096;12.664;2023-04-22T11:25:08;101294.31;;;17.48;86.91
13732;BME280;6937;56.096;12.664;2023-04-22T11:27:35;101285.06;;;17.50;86.34
13732;BME280;6937;56.096;12.664;2023-04-22T11:30:09;101276.41;;;17.47;86.20
13732;BME280;6937;56.096;12.664;2023-04-22T11:32:38;101277.09;;;17.49;86.00
13732;BME280;6937;56.096;12.664;2023-04-22T11:35:08;101275.97;;;17.42;85.47
13732;BME280;6937;56.096;12.664;2023-04-22T11:37:50;101269.44;;;17.34;87.94
13732;BME280;6937;56.096;12.664;2023-04-22T11:40:25;101264.16;;;17.33;89.37
13732;BME280;6937;56.096;12.664;2023-04-22T11:42:51;101264.88;;;17.45;88.92
13732;BME280;6937;56.096;12.664;2023-04-22T11:45:17;101271.44;;;17.61;88.37
13732;BME280;6937;56.096;12.664;2023-04-22T11:47:43;101274.25;;;17.79;87.01
13732;BME280;6937;56.096;12.664;2023-04-22T11:50:12;101253.66;;;17.68;86.67
13732;BME280;6937;56.096;12.664;2023-04-22T11:58:07;101261.41;;;17.91;85.38
13732;BME280;6937;56.096;12.664;2023-04-22T12:03:18;101264.38;;;17.97;88.31
13732;BME280;6937;56.096;12.664;2023-04-22T12:05:44;101272.50;;;17.97;87.81
13732;BME280;6937;56.096;12.664;2023-04-22T12:08:15;101275.16;;;18.16;86.16
13732;BME280;6937;56.096;12.664;2023-04-22T12:10:43;101260.44;;;17.92;84.31
13732;BME280;6937;56.096;12.664;2023-04-22T12:13:16;101260.88;;;17.87;87.21
13732;BME280;6937;56.096;12.664;2023-04-22T12:15:43;101254.13;;;18.01;88.19
13732;BME280;6937;56.096;12.664;2023-04-22T12:18:09;101256.53;;;18.13;87.89
13732;BME280;6937;56.096;12.664;2023-04-22T12:20:38;101258.63;;;18.19;87.59
13732;BME280;6937;56.096;12.664;2023-04-22T12:23:04;101260.41;;;18.38;88.18
13732;BME280;6937;56.096;12.664;2023-04-22T12:25:29;101268.22;;;18.41;87.84
13732;BME280;6937;56.096;12.664;2023-04-22T12:27:58;101269.69;;;18.35;87.39
13732;BME280;6937;56.096;12.664;2023-04-22T12:30:23;101254.88;;;18.30;87.55
13732;BME280;6937;56.096;12.664;2023-04-22T12:32:49;101247.78;;;18.29;87.58
13732;BME280;6937;56.096;12.664;2023-04-22T12:35:14;101243.16;;;18.39;88.81
13732;BME280;6937;56.096;12.664;2023-04-22T12:37:40;101245.75;;;18.41;87.99
13732;BME280;6937;56.096;12.664;2023-04-22T12:40:05;101245.38;;;18.63;86.55
13732;BME280;6937;56.096;12.664;2023-04-22T12:42:31;101245.28;;;18.72;86.81
13732;BME280;6937;56.096;12.664;2023-04-22T12:44:57;101244.13;;;18.75;82.46
13732;BME280;6937;56.096;12.664;2023-04-22T12:47:23;101240.28;;;18.77;80.24
13732;BME280;6937;56.096;12.664;2023-04-22T12:49:48;101246.16;;;18.91;79.35
13732;BME280;6937;56.096;12.664;2023-04-22T12:52:14;101235.00;;;18.76;78.21
13732;BME280;6937;56.096;12.664;2023-04-22T12:54:39;101235.63;;;18.70;77.65
13732;BME280;6937;56.096;12.664;2023-04-22T12:57:05;101233.47;;;18.73;76.44
13732;BME280;6937;56.096;12.664;2023-04-22T12:59:30;101231.44;;;18.75;76.57
13732;BME280;6937;56.096;12.664;2023-04-22T13:01:55;101238.72;;;18.75;74.34
13732;BME280;6937;56.096;12.664;2023-04-22T13:04:21;101235.25;;;18.82;75.40
13732;BME280;6937;56.096;12.664;2023-04-22T13:06:46;101244.50;;;19.07;74.27